createdAt,value
2022-10-07T00:03:55.536Z,99430.5
2022-10-07T00:09:45.392Z,99425.6
2022-10-07T00:15:21.566Z,99427.5
2022-10-07T00:21:05.445Z,99419
2022-10-07T00:26:40.334Z,99411.4
2022-10-07T00:32:15.976Z,99407.8
2022-10-07T00:37:51.740Z,99403.2
2022-10-07T00:43:39.654Z,99395.3
2022-10-07T00:49:23.837Z,99393.6
2022-10-07T00:54:58.708Z,99392.3
2022-10-07T01:00:34.575Z,99386.2
2022-10-07T01:06:09.631Z,99380.9
2022-10-07T01:12:09.169Z,99379.3
2022-10-07T01:17:43.307Z,99365.9
2022-10-07T01:23:21.267Z,99367.1
2022-10-07T01:28:56.216Z,99355.7
2022-10-07T01:34:52.598Z,99347
2022-10-07T01:40:27.692Z,99345.2
2022-10-07T01:46:04.067Z,99333.4
2022-10-07T01:51:41.874Z,99317.4
2022-10-07T01:57:17.930Z,99321
2022-10-07T02:02:58.793Z,99320.6
2022-10-07T02:08:45.702Z,99310.9
2022-10-07T02:14:21.777Z,99300.1
2022-10-07T02:20:20.227Z,99299.3
2022-10-07T02:25:57.303Z,99301.5
2022-10-07T02:31:35.758Z,99295.2
2022-10-07T02:37:30.666Z,99292.4
2022-10-07T02:43:23.998Z,99287.6
2022-10-07T02:49:51.860Z,99282.6
2022-10-07T02:55:26.902Z,99277.3
2022-10-07T03:01:01.873Z,99271.4
2022-10-07T03:06:36.723Z,99267.9
2022-10-07T03:12:36.058Z,99260.4
2022-10-07T03:18:08.781Z,99259.9
2022-10-07T03:24:01.342Z,99257.5
2022-10-07T03:29:53.038Z,99249.2
2022-10-07T03:35:27.849Z,99250.7
2022-10-07T03:41:38.495Z,99247.2
2022-10-07T03:47:51.787Z,99248.3
2022-10-07T03:53:40.556Z,99239.3
2022-10-07T03:59:24.568Z,99248.3
2022-10-07T04:05:00.421Z,99246.7
2022-10-07T04:10:57.311Z,99245.3
2022-10-07T04:16:37.236Z,99240.4
2022-10-07T04:22:15.175Z,99236.9
2022-10-07T04:27:53.829Z,99235
2022-10-07T04:33:38.597Z,99234.4
2022-10-07T04:40:01.419Z,99231.3
2022-10-07T04:45:37.520Z,99229.7
2022-10-07T04:51:14.864Z,99234
2022-10-07T04:56:56.904Z,99234.7
2022-10-07T05:02:43.742Z,99230
2022-10-07T05:09:05.056Z,99224.7
2022-10-07T05:14:40.369Z,99225.4
2022-10-07T05:20:15.452Z,99220.3
2022-10-07T05:25:55.777Z,99222.5
2022-10-07T05:31:49.170Z,99224.5
2022-10-07T05:37:26.788Z,99224.8
2022-10-07T05:43:02.102Z,99227.8
2022-10-07T05:48:43.880Z,99231.5
2022-10-07T05:54:26.471Z,99226.2
2022-10-07T06:00:01.940Z,99215
2022-10-07T06:05:37.010Z,99204.6
2022-10-07T06:11:33.605Z,99205.6
2022-10-07T06:17:06.386Z,99201.5
2022-10-07T06:22:41.311Z,99192.3
2022-10-07T06:28:16.884Z,99189
2022-10-07T06:33:53.792Z,99196.4
2022-10-07T06:39:29.964Z,99191.5
2022-10-07T06:45:04.600Z,99186.2
2022-10-07T06:50:39.604Z,99194
2022-10-07T06:56:14.542Z,99204.8
2022-10-07T07:01:49.324Z,99196.8
2022-10-07T07:07:27.212Z,99210.3
2022-10-07T07:13:03.545Z,99212.7
2022-10-07T07:18:38.407Z,99221.8
2022-10-07T07:24:13.448Z,99219.9
2022-10-07T07:29:48.335Z,99217.1
2022-10-07T07:35:23.394Z,99219.3
2022-10-07T07:40:58.438Z,99224.1
2022-10-07T07:46:33.650Z,99228
2022-10-07T07:52:08.631Z,99230.4
2022-10-07T07:57:45.493Z,99230.8
2022-10-07T08:03:22.975Z,99234
2022-10-07T08:08:58.111Z,99236.5
2022-10-07T08:14:33.350Z,99236.6
2022-10-07T08:20:09.980Z,99236.9
2022-10-07T08:25:45.097Z,99242.7
2022-10-07T08:31:20.882Z,99240
2022-10-07T08:36:57.082Z,99233.9
2022-10-07T08:42:32.191Z,99229.8
2022-10-07T08:48:07.377Z,99228.3
2022-10-07T08:53:43.717Z,99221.2
2022-10-07T08:59:18.914Z,99222.8
2022-10-07T09:04:54.584Z,99217.8
2022-10-07T09:10:29.472Z,99212.5
2022-10-07T09:16:04.897Z,99209.4
2022-10-07T09:21:40.367Z,99204.8
2022-10-07T09:27:15.470Z,99199.6
2022-10-07T09:32:51.694Z,99203.3
2022-10-07T09:38:27.094Z,99199.9
2022-10-07T09:44:02.099Z,99193.3
2022-10-07T09:49:37.068Z,99187.5
2022-10-07T09:55:12.770Z,99187.7
2022-10-07T10:00:53.865Z,99183.6
2022-10-07T10:06:29.335Z,99183.5
2022-10-07T10:12:26.510Z,99177.5
2022-10-07T10:17:59.931Z,99172.9
2022-10-07T10:23:35.523Z,99170.5
2022-10-07T10:29:11.184Z,99160.5
2022-10-07T10:34:46.283Z,99157.7
2022-10-07T10:40:30.748Z,99157.1
2022-10-07T10:46:06.258Z,99153.9
2022-10-07T10:51:41.840Z,99149.5
2022-10-07T10:57:16.708Z,99143.1
2022-10-07T11:02:52.825Z,99135.2
2022-10-07T11:08:30.298Z,99136.9
2022-10-07T11:14:13.897Z,99142.1
2022-10-07T11:19:49.848Z,99133.9
2022-10-07T11:25:25.126Z,99127
2022-10-07T11:31:00.691Z,99118.4
2022-10-07T11:36:36.154Z,99109.9
2022-10-07T11:42:11.189Z,99104.5
2022-10-07T11:47:46.207Z,99097.7
2022-10-07T11:53:21.202Z,99089.2
2022-10-07T11:58:57.121Z,99084.2
2022-10-07T12:04:32.909Z,99084.1
2022-10-07T12:10:07.924Z,99082
2022-10-07T12:15:42.890Z,99076.3
2022-10-07T12:21:19.082Z,99071.3
2022-10-07T12:26:55.563Z,99067.5
2022-10-07T12:32:31.246Z,99061.2
2022-10-07T12:38:07.328Z,99049.5
2022-10-07T12:43:42.398Z,99038.3
2022-10-07T12:49:17.626Z,99026.1
2022-10-07T12:54:52.764Z,99018.1
2022-10-07T13:00:27.846Z,99007.9
2022-10-07T13:06:03.621Z,99003.6
2022-10-07T13:11:38.767Z,98993
2022-10-07T13:17:14.752Z,98987.1
2022-10-07T13:22:49.704Z,98974.7
2022-10-07T13:28:24.960Z,98980.1
2022-10-07T13:34:00.860Z,98976.1
2022-10-07T13:39:36.206Z,98970.3
2022-10-07T13:45:11.174Z,98959.7
2022-10-07T13:50:47.177Z,98951.7
2022-10-07T13:56:22.589Z,98956.3
2022-10-07T14:01:58.284Z,98955.9
2022-10-07T14:07:34.336Z,98949.1
2022-10-07T14:13:09.201Z,98945.9
2022-10-07T14:18:44.028Z,98938
2022-10-07T14:24:18.958Z,98935.1
2022-10-07T14:29:54.612Z,98929.6
2022-10-07T14:35:29.241Z,98930.2
2022-10-07T14:41:05.971Z,98923.9
2022-10-07T14:46:41.511Z,98923.5
2022-10-07T14:52:16.680Z,98919.4
2022-10-07T14:57:52.985Z,98918.3
2022-10-07T15:03:27.896Z,98910.6
2022-10-07T15:09:04.142Z,98910
2022-10-07T15:14:38.852Z,98902.9
2022-10-07T15:20:14.701Z,98901.5
2022-10-07T15:25:49.760Z,98893.8
2022-10-07T15:31:25.521Z,98887.1
2022-10-07T15:37:03.697Z,98883.8
2022-10-07T15:42:38.658Z,98877.7
2022-10-07T15:48:14.581Z,98879.9
2022-10-07T15:53:49.342Z,98882.1
2022-10-07T15:59:24.405Z,98881.2
2022-10-07T16:04:59.401Z,98881.1
2022-10-07T16:10:34.052Z,98884.8
2022-10-07T16:16:08.970Z,98883.5
2022-10-07T16:21:45.007Z,98883.4
2022-10-07T16:27:20.177Z,98885.4
2022-10-07T16:32:55.862Z,98884.5
2022-10-07T16:38:30.811Z,98884.4
2022-10-07T16:44:05.721Z,98886.3
2022-10-07T16:49:40.643Z,98888.5
2022-10-07T16:55:15.597Z,98894.6
2022-10-07T17:00:50.920Z,98905.4
2022-10-07T17:06:27.055Z,98907.4
2022-10-07T17:12:24.590Z,98911.2
2022-10-07T17:17:58.208Z,98916.6
2022-10-07T17:23:34.120Z,98918.7
2022-10-07T17:29:08.912Z,98919.8
2022-10-07T17:34:46.012Z,98921.3
2022-10-07T17:40:21.071Z,98923.3
2022-10-07T17:45:56.253Z,98926.3
2022-10-07T17:51:31.333Z,98929.8
2022-10-07T17:57:06.126Z,98934.2
2022-10-07T18:02:41.363Z,98939
2022-10-07T18:08:17.788Z,98948.6
2022-10-07T18:14:14.375Z,98950.3
2022-10-07T18:19:47.577Z,98957.2
2022-10-07T18:25:22.494Z,98964.4
2022-10-07T18:30:57.627Z,98968.5
2022-10-07T18:36:32.994Z,98968.3
2022-10-07T18:42:15.832Z,98971.5
2022-10-07T18:47:51.616Z,98981.1
2022-10-07T18:53:36.187Z,98988.2
2022-10-07T18:59:32.407Z,98992.4
2022-10-07T19:05:11.545Z,98992.6
2022-10-07T19:11:08.507Z,98995
2022-10-07T19:16:42.058Z,98994
2022-10-07T19:22:44.477Z,98998.3
2022-10-07T19:28:32.037Z,98999.2
2022-10-07T19:34:22.394Z,98996.2
2022-10-07T19:40:18.108Z,98997.3
2022-10-07T19:46:02.092Z,98998.1
2022-10-07T19:51:46.882Z,99001.3
2022-10-07T19:57:46.253Z,99010.1
2022-10-07T20:03:23.344Z,99023.6
2022-10-07T20:09:18.397Z,99027.5
2022-10-07T20:15:12.037Z,99027.5
2022-10-07T20:21:26.095Z,99036.3
2022-10-07T20:27:01.069Z,99044.2
2022-10-07T20:32:35.994Z,99047.9
2022-10-07T20:38:10.631Z,99054.8
2022-10-07T20:43:48.237Z,99068.3
2022-10-07T20:49:25.770Z,99073.4
2022-10-07T20:55:00.997Z,99083.2
2022-10-07T21:00:36.770Z,99090.5
2022-10-07T21:06:14.469Z,99097.8
2022-10-07T21:12:11.368Z,99098.2
2022-10-07T21:17:44.109Z,99096
2022-10-07T21:23:19.191Z,99106.2
2022-10-07T21:28:56.379Z,99113.6
2022-10-07T21:34:53.608Z,99118.4
2022-10-07T21:40:28.465Z,99117
2022-10-07T21:46:16.850Z,99119.5
2022-10-07T21:52:10.603Z,99117.1
2022-10-07T21:57:50.359Z,99110.1
2022-10-07T22:03:35.446Z,99109.9
2022-10-07T22:09:10.334Z,99109
2022-10-07T22:15:19.257Z,99105.1
2022-10-07T22:20:55.431Z,99102.6
2022-10-07T22:26:34.368Z,99109
2022-10-07T22:32:51.322Z,99108.7
2022-10-07T22:38:26.084Z,99109.9
2022-10-07T22:44:00.923Z,99111.8
2022-10-07T22:49:35.886Z,99115.9
2022-10-07T22:55:19.074Z,99115.8
2022-10-07T23:00:58.118Z,99118.6
2022-10-07T23:06:38.412Z,99115.6
2022-10-07T23:12:35.417Z,99111.2
2022-10-07T23:18:07.973Z,99104.3
2022-10-07T23:23:42.749Z,99097.4
2022-10-07T23:29:21.751Z,99103.2
2022-10-07T23:35:10.448Z,99099.1
2022-10-07T23:40:45.210Z,99094.4
2022-10-07T23:46:24.670Z,99089
2022-10-07T23:52:00.166Z,99084.3
2022-10-07T23:57:34.934Z,99076.5
